Terminal Aerodrome Forecast
Issued by NWS Twin Cities, MN

Home | Current Version | Previous Version | Text Only | Print | Product List | Glossary On
Versions: 1 2 3 4 5 6 7 8 9 10 11 12 13 14 15 16 17 18 19 20
000
FTUS43 KMPX 250200 AAA
TAFSTC
TAF AMD
KSTC 250236Z 2503/2524 17007KT P6SM BKN040
     FM250900 15007KT 6SM -SHRA VCTS SCT030 OVC040CB
      TEMPO 2509/2511 3SM -TSRA BR OVC030CB
     FM251200 15007KT P6SM SCT020 BKN035
     FM252100 30006KT P6SM BKN040=

USA.gov is the U.S. government's official web portal to all federal, state and local government web resources and services.